Time;durP1;ratioP1;P1;durP2;ratioP2;P2;SDS_P1;SDS_P2;PMS_P1;PMS_P2;Temp;Humidity;BMP_temperature;BMP_pressure;BME280_temperature;BME280_humidity;BME280_pressure;Samples;Min_cycle;Max_cycle;Signal;HPM_P1;HPM_P2
2023/02/07 00:00:19;;;;;;;5.90;2.78;;;16.00;57.00;;;;;;4992876;28;20417;-83
2023/02/07 00:02:47;;;;;;;6.28;2.70;;;16.00;56.90;;;;;;4992334;28;20046;-83
2023/02/07 00:05:14;;;;;;;6.82;3.00;;;16.00;56.90;;;;;;4992544;28;20025;-82
2023/02/07 00:07:39;;;;;;;5.88;2.67;;;16.00;56.90;;;;;;4994906;28;20022;-82
2023/02/07 00:10:06;;;;;;;6.57;3.15;;;15.90;56.80;;;;;;4996083;28;20397;-81
2023/02/07 00:12:33;;;;;;;3.40;2.47;;;16.00;56.90;;;;;;4995875;28;20050;-81
2023/02/07 00:14:59;;;;;;;7.38;2.92;;;16.00;56.90;;;;;;4995828;28;20539;-82
2023/02/07 00:17:24;;;;;;;5.97;3.05;;;16.00;56.90;;;;;;4996199;28;20397;-82
2023/02/07 00:19:50;;;;;;;5.22;2.70;;;16.00;57.00;;;;;;4995840;28;20022;-82
2023/02/07 00:22:15;;;;;;;4.28;2.30;;;15.90;57.00;;;;;;4995835;28;20481;-82
2023/02/07 00:24:41;;;;;;;4.82;2.28;;;16.00;57.00;;;;;;4995713;28;20030;-82
2023/02/07 00:27:07;;;;;;;4.47;2.58;;;16.00;57.00;;;;;;4995711;28;20449;-82
2023/02/07 00:29:33;;;;;;;5.65;2.70;;;15.90;57.00;;;;;;4995616;28;20033;-82
2023/02/07 00:31:58;;;;;;;4.88;2.35;;;15.90;57.00;;;;;;4995533;28;20581;-82
2023/02/07 00:34:24;;;;;;;4.15;2.85;;;15.90;57.10;;;;;;4995622;28;20113;-82
2023/02/07 00:36:50;;;;;;;5.82;2.83;;;15.90;57.10;;;;;;4995545;28;20030;-82
2023/02/07 00:39:16;;;;;;;3.28;2.10;;;15.90;57.20;;;;;;4995549;28;20058;-81
2023/02/07 00:41:44;;;;;;;3.50;2.30;;;15.90;57.70;;;;;;4995392;28;20038;-81
2023/02/07 00:44:10;;;;;;;4.65;2.50;;;15.90;57.10;;;;;;4995567;28;20051;-81
2023/02/07 00:46:37;;;;;;;3.92;2.53;;;15.90;57.10;;;;;;4995614;28;20034;-82
2023/02/07 00:49:04;;;;;;;6.25;2.70;;;15.90;57.10;;;;;;4995523;28;20023;-81
2023/02/07 00:51:32;;;;;;;4.40;2.40;;;15.90;57.10;;;;;;4995148;28;20079;-81
2023/02/07 00:53:58;;;;;;;5.70;2.65;;;15.90;57.20;;;;;;4995216;28;20507;-81
2023/02/07 00:56:26;;;;;;;3.47;2.45;;;15.80;57.20;;;;;;4995462;28;20026;-74
2023/02/07 00:58:52;;;;;;;3.65;2.53;;;15.90;57.20;;;;;;4994985;28;20037;-74
2023/02/07 01:01:19;;;;;;;5.00;2.22;;;15.90;65.10;;;;;;4995016;28;20157;-74
2023/02/07 01:03:45;;;;;;;3.13;2.20;;;15.80;57.20;;;;;;4994580;28;20046;-74
2023/02/07 01:06:12;;;;;;;4.88;2.55;;;15.80;57.10;;;;;;4994894;28;20029;-74
2023/02/07 01:08:38;;;;;;;4.68;2.65;;;15.80;57.10;;;;;;4994926;28;20381;-74
2023/02/07 01:11:09;;;;;;;4.85;2.60;;;15.80;57.10;;;;;;4994815;28;20019;-74
2023/02/07 01:13:35;;;;;;;3.63;2.25;;;15.80;57.10;;;;;;4994551;28;20098;-74
2023/02/07 01:16:01;;;;;;;4.55;2.40;;;15.90;57.10;;;;;;4994665;28;20081;-74
2023/02/07 01:18:27;;;;;;;4.00;2.30;;;15.80;57.70;;;;;;4994095;28;20034;-74
2023/02/07 01:20:53;;;;;;;3.15;2.15;;;15.80;57.10;;;;;;4994423;28;20018;-74
2023/02/07 01:23:18;;;;;;;3.47;2.17;;;15.80;57.10;;;;;;4994320;28;20512;-74
2023/02/07 01:25:45;;;;;;;4.78;2.35;;;15.80;57.00;;;;;;4994329;28;20034;-74
2023/02/07 01:28:12;;;;;;;4.85;2.47;;;15.80;57.10;;;;;;4994325;28;20486;-74
2023/02/07 01:30:39;;;;;;;3.33;2.00;;;15.80;57.00;;;;;;4994104;28;20026;-74
2023/02/07 01:33:04;;;;;;;3.45;2.25;;;15.80;57.10;;;;;;4994303;28;20035;-74
2023/02/07 01:35:30;;;;;;;3.88;2.20;;;15.80;57.10;;;;;;4994174;28;20403;-73
2023/02/07 01:37:58;;;;;;;2.72;2.20;;;15.80;57.20;;;;;;4994282;28;20058;-75
2023/02/07 01:40:26;;;;;;;3.00;2.05;;;15.70;57.00;;;;;;4994126;28;20546;-74
2023/02/07 01:42:51;;;;;;;3.53;2.20;;;15.80;57.80;;;;;;4994056;28;20018;-74
2023/02/07 01:45:32;;;;;;;4.78;2.45;;;15.80;57.10;;;;;;4993911;28;20026;-74
2023/02/07 01:48:03;;;;;;;3.88;1.98;;;15.80;57.00;;;;;;4993939;28;20037;-74
2023/02/07 01:50:29;;;;;;;3.60;2.25;;;15.80;56.90;;;;;;4993820;28;20066;-74
2023/02/07 01:52:57;;;;;;;4.45;2.10;;;15.80;57.00;;;;;;4993815;28;20081;-74
2023/02/07 01:55:27;;;;;;;3.78;2.65;;;15.70;56.90;;;;;;4976239;28;20559;-74
2023/02/07 01:57:53;;;;;;;4.28;2.30;;;15.70;57.00;;;;;;4993852;28;20054;-74
2023/02/07 02:00:19;;;;;;;3.67;2.33;;;15.70;57.00;;;;;;4993883;28;20060;-74
2023/02/07 02:02:45;;;;;;;3.10;1.90;;;15.70;57.00;;;;;;4993513;28;20054;-74
2023/02/07 02:05:11;;;;;;;2.53;2.10;;;15.70;57.00;;;;;;4993814;28;20174;-74
2023/02/07 02:07:38;;;;;;;3.08;2.03;;;15.70;57.00;;;;;;4993547;28;20073;-74
2023/02/07 02:10:21;;;;;;;4.07;1.85;;;15.70;57.00;;;;;;4993526;28;20023;-81
2023/02/07 02:13:11;;;;;;;3.33;2.08;;;15.70;57.00;;;;;;4993669;28;20026;-82
2023/02/07 02:16:01;;;;;;;5.22;2.40;;;15.70;57.00;;;;;;4993816;28;20031;-81
2023/02/07 02:18:53;;;;;;;4.63;2.10;;;15.70;57.00;;;;;;4993713;28;20030;-81
2023/02/07 02:21:50;;;;;;;5.13;2.10;;;15.70;56.90;;;;;;4993676;28;20033;-81
2023/02/07 02:24:53;;;;;;;3.55;2.25;;;15.70;57.00;;;;;;4993532;28;20027;-81
2023/02/07 02:27:31;;;;;;;4.30;2.00;;;15.60;57.00;;;;;;4993750;28;20527;-81
2023/02/07 02:30:33;;;;;;;2.58;1.98;;;15.60;57.00;;;;;;4993059;28;20038;-81
2023/02/07 02:33:14;;;;;;;3.47;1.92;;;15.60;57.00;;;;;;4993386;28;20508;-82
2023/02/07 02:36:06;;;;;;;2.13;1.60;;;15.60;57.00;;;;;;4993380;28;20076;-82
2023/02/07 02:38:54;;;;;;;3.80;2.17;;;15.60;57.00;;;;;;4993709;28;20047;-82
2023/02/07 02:41:27;;;;;;;3.47;2.38;;;15.60;57.00;;;;;;4993672;28;20030;-82
2023/02/07 02:44:00;;;;;;;4.88;2.40;;;15.60;57.00;;;;;;4993273;28;20061;-82
2023/02/07 02:46:40;;;;;;;4.90;2.65;;;15.60;56.90;;;;;;4993326;28;20169;-81
2023/02/07 02:49:10;;;;;;;3.67;2.05;;;15.60;57.00;;;;;;4993216;28;20109;-82
2023/02/07 02:51:35;;;;;;;3.58;1.85;;;15.60;57.00;;;;;;4992972;28;20035;-82
2023/02/07 02:54:01;;;;;;;5.00;2.00;;;15.60;57.00;;;;;;4993045;28;20026;-82
2023/02/07 02:56:54;;;;;;;3.70;1.88;;;15.50;56.90;;;;;;4993082;28;20535;-82
2023/02/07 02:59:25;;;;;;;4.25;1.92;;;15.60;56.90;;;;;;4993130;28;20037;-82
2023/02/07 03:02:03;;;;;;;3.80;1.95;;;15.60;56.90;;;;;;4992688;28;20042;-81
2023/02/07 03:04:51;;;;;;;3.17;2.08;;;15.50;56.90;;;;;;4993034;28;20519;-81
2023/02/07 03:07:38;;;;;;;4.80;2.05;;;15.50;57.50;;;;;;4992913;28;20039;-81
2023/02/07 03:10:31;;;;;;;3.33;1.88;;;15.50;56.90;;;;;;4992924;28;20393;-81
2023/02/07 03:13:01;;;;;;;2.58;1.80;;;15.50;57.00;;;;;;4992875;28;20117;-81
2023/02/07 03:16:03;;;;;;;2.80;1.80;;;15.50;56.90;;;;;;4993013;28;20018;-81
2023/02/07 03:18:46;;;;;;;3.25;2.15;;;15.50;56.90;;;;;;4987506;28;20097;-81
2023/02/07 03:21:23;;;;;;;3.15;2.00;;;15.50;56.90;;;;;;4992940;28;20037;-81
2023/02/07 03:23:51;;;;;;;4.35;2.03;;;15.50;56.90;;;;;;4992771;28;20034;-81
2023/02/07 03:26:20;;;;;;;3.22;1.67;;;15.50;56.90;;;;;;4992904;28;20018;-82
2023/02/07 03:28:48;;;;;;;3.30;1.90;;;15.50;57.50;;;;;;4992968;28;20061;-82
2023/02/07 03:31:17;;;;;;;2.67;1.83;;;15.50;57.00;;;;;;4992965;28;20042;-82
2023/02/07 03:33:48;;;;;;;3.63;1.93;;;15.50;56.90;;;;;;4992752;28;20037;-82
2023/02/07 03:36:22;;;;;;;2.75;1.73;;;15.40;56.90;;;;;;4993077;28;20088;-82
2023/02/07 03:38:48;;;;;;;2.50;2.00;;;15.40;56.80;;;;;;4992961;28;20027;-81
2023/02/07 03:41:20;;;;;;;3.90;2.15;;;15.40;56.80;;;;;;4995142;28;20018;-82
2023/02/07 03:43:46;;;;;;;2.45;1.60;;;15.40;56.80;;;;;;4996922;28;20156;-82
2023/02/07 03:46:12;;;;;;;3.67;2.20;;;15.40;56.90;;;;;;4979691;28;20138;-82
2023/02/07 03:48:38;;;;;;;2.88;1.67;;;15.40;56.90;;;;;;4996558;28;20037;-82
2023/02/07 03:51:03;;;;;;;3.70;1.80;;;15.40;56.90;;;;;;4996431;28;20042;-83
2023/02/07 03:53:29;;;;;;;4.07;2.08;;;15.40;56.90;;;;;;4978939;28;20022;-83
2023/02/07 03:55:55;;;;;;;3.05;1.83;;;15.40;56.80;;;;;;4996519;28;20038;-83
2023/02/07 03:58:20;;;;;;;3.40;1.80;;;15.30;56.80;;;;;;4996708;28;20019;-84
2023/02/07 04:00:46;;;;;;;2.20;1.80;;;15.40;56.80;;;;;;4996526;28;20366;-82
2023/02/07 04:03:11;;;;;;;3.10;1.92;;;15.30;56.80;;;;;;4996068;28;20085;-83
2023/02/07 04:05:37;;;;;;;3.00;1.60;;;15.30;56.80;;;;;;4996384;28;20041;-83
2023/02/07 04:08:03;;;;;;;3.15;1.88;;;15.30;56.90;;;;;;4996181;28;20500;-83
2023/02/07 04:10:28;;;;;;;1.90;1.40;;;15.30;56.80;;;;;;4996132;28;20038;-83
2023/02/07 04:12:54;;;;;;;2.35;2.00;;;15.30;56.80;;;;;;4996039;28;20082;-84
2023/02/07 04:15:20;;;;;;;2.50;1.42;;;15.30;57.50;;;;;;4995979;28;20022;-84
2023/02/07 04:17:45;;;;;;;2.78;1.63;;;15.30;56.80;;;;;;4996071;28;20041;-84
2023/02/07 04:20:12;;;;;;;2.67;1.92;;;15.30;56.80;;;;;;4996135;28;20031;-84
2023/02/07 04:22:37;;;;;;;1.65;1.45;;;15.30;56.80;;;;;;4995929;28;20034;-84
2023/02/07 04:25:03;;;;;;;2.88;1.65;;;15.30;56.80;;;;;;4996016;28;20382;-84
2023/02/07 04:27:29;;;;;;;2.95;1.60;;;15.30;56.90;;;;;;4996198;28;20392;-84
2023/02/07 04:29:55;;;;;;;2.75;1.50;;;15.30;56.80;;;;;;4995713;28;20640;-85
2023/02/07 04:32:21;;;;;;;2.92;1.80;;;15.20;56.80;;;;;;4995950;28;20038;-85
2023/02/07 04:34:46;;;;;;;1.83;1.25;;;15.20;56.80;;;;;;4995973;28;20022;-85
2023/02/07 04:37:12;;;;;;;2.83;1.42;;;15.20;56.80;;;;;;4995760;28;20354;-84
2023/02/07 04:39:37;;;;;;;2.22;1.70;;;15.20;56.80;;;;;;4995889;28;20428;-84
2023/02/07 04:42:03;;;;;;;2.67;1.50;;;15.20;56.80;;;;;;4995546;28;20497;-84
2023/02/07 04:44:29;;;;;;;3.17;1.73;;;15.20;56.80;;;;;;4995570;28;20053;-84
2023/02/07 04:46:55;;;;;;;2.10;1.63;;;15.20;56.70;;;;;;4995469;28;20433;-84
2023/02/07 04:49:21;;;;;;;1.73;1.20;;;15.20;56.80;;;;;;4995534;28;20022;-84
2023/02/07 04:51:46;;;;;;;2.47;1.63;;;15.10;56.70;;;;;;4995321;28;20061;-84
2023/02/07 04:54:13;;;;;;;2.08;1.48;;;15.10;56.70;;;;;;4995251;28;20077;-84
2023/02/07 04:56:38;;;;;;;2.30;1.40;;;15.20;56.80;;;;;;4995298;28;20030;-84
2023/02/07 04:59:04;;;;;;;2.05;1.63;;;15.10;56.70;;;;;;4995316;28;20034;-83
2023/02/07 05:01:30;;;;;;;2.20;1.52;;;15.10;56.70;;;;;;4994938;28;20101;-82
2023/02/07 05:03:55;;;;;;;2.17;1.90;;;15.10;56.70;;;;;;4995192;28;20034;-84
2023/02/07 05:06:21;;;;;;;2.90;1.65;;;15.10;56.70;;;;;;4995216;28;20058;-83
2023/02/07 05:08:46;;;;;;;5.13;1.92;;;15.10;56.80;;;;;;4995073;28;20026;-84
2023/02/07 05:11:12;;;;;;;2.50;1.55;;;15.10;56.80;;;;;;4994916;28;20033;-82
2023/02/07 05:13:38;;;;;;;2.40;1.50;;;15.10;56.70;;;;;;4995009;28;20030;-84
2023/02/07 05:16:04;;;;;;;2.92;1.67;;;15.10;56.80;;;;;;4995038;28;20023;-84
2023/02/07 05:18:30;;;;;;;2.53;1.40;;;15.10;56.80;;;;;;4995000;28;20030;-84
2023/02/07 05:20:56;;;;;;;1.40;1.20;;;15.10;56.80;;;;;;4994987;28;20080;-84
2023/02/07 05:23:22;;;;;;;2.83;1.70;;;15.10;56.90;;;;;;4995063;28;20089;-85
2023/02/07 05:25:48;;;;;;;2.83;1.73;;;15.10;56.90;;;;;;4994731;28;20480;-84
2023/02/07 05:28:14;;;;;;;2.63;1.58;;;15.00;56.90;;;;;;4994796;28;20105;-84
2023/02/07 05:30:39;;;;;;;2.05;1.50;;;15.00;57.00;;;;;;4994701;28;20026;-85
2023/02/07 05:33:05;;;;;;;2.75;1.65;;;15.10;57.00;;;;;;4994638;28;20038;-85
2023/02/07 05:35:36;;;;;;;2.75;1.60;;;15.00;57.00;;;;;;4994461;28;20088;-75
2023/02/07 05:38:06;;;;;;;1.95;1.75;;;15.00;57.10;;;;;;4994359;28;20030;-75
2023/02/07 05:40:32;;;;;;;2.78;2.22;;;15.00;57.10;;;;;;4994349;28;20474;-75
2023/02/07 05:42:58;;;;;;;3.17;2.88;;;15.00;57.20;;;;;;4994493;28;20030;-74
2023/02/07 05:45:24;;;;;;;4.32;4.03;;;15.00;57.30;;;;;;4994444;28;20362;-74
2023/02/07 05:47:49;;;;;;;6.05;5.55;;;15.00;57.30;;;;;;4994272;28;20564;-75
2023/02/07 05:50:15;;;;;;;8.02;7.32;;;15.00;57.30;;;;;;4994091;28;20018;-74
2023/02/07 05:52:42;;;;;;;10.32;9.35;;;15.00;57.40;;;;;;4994030;28;20042;-74
2023/02/07 05:55:08;;;;;;;12.18;11.18;;;15.00;57.50;;;;;;4994293;28;20377;-75
2023/02/07 05:57:34;;;;;;;15.18;13.88;;;15.00;57.50;;;;;;4994190;28;20030;-74
2023/02/07 05:59:59;;;;;;;18.00;16.45;;;15.00;57.50;;;;;;4993928;28;20041;-75
2023/02/07 06:02:25;;;;;;;21.33;19.50;;;14.90;57.40;;;;;;4993646;28;20073;-75
2023/02/07 06:04:51;;;;;;;24.20;22.20;;;15.00;57.60;;;;;;4992915;28;20052;-75
2023/02/07 06:07:16;;;;;;;24.15;22.15;;;14.90;57.70;;;;;;4993883;28;20401;-75
2023/02/07 06:09:42;;;;;;;27.80;25.33;;;15.00;57.60;;;;;;4994188;28;20022;-75
2023/02/07 06:12:07;;;;;;;29.05;26.45;;;14.90;57.50;;;;;;4993777;28;20065;-84
2023/02/07 06:14:33;;;;;;;30.25;27.70;;;14.90;57.90;;;;;;4993958;28;20027;-80
2023/02/07 06:16:59;;;;;;;33.40;30.40;;;14.90;57.70;;;;;;4994376;28;20033;-82
2023/02/07 06:19:24;;;;;;;33.67;30.73;;;14.90;57.70;;;;;;4993778;28;20515;-81
2023/02/07 06:21:50;;;;;;;34.58;31.65;;;14.90;57.60;;;;;;4993497;28;20389;-79
2023/02/07 06:24:15;;;;;;;35.97;32.78;;;14.90;57.60;;;;;;4993637;28;20037;-81
2023/02/07 06:26:42;;;;;;;34.28;31.30;;;14.90;57.80;;;;;;4993663;28;20098;-80
2023/02/07 06:29:07;;;;;;;33.38;30.48;;;14.90;57.60;;;;;;4993471;28;20029;-78
2023/02/07 06:31:33;;;;;;;34.42;31.17;;;14.90;57.60;;;;;;4993343;28;20039;-79
2023/02/07 06:33:58;;;;;;;32.00;29.20;;;14.90;57.70;;;;;;4993316;28;20133;-80
2023/02/07 06:36:24;;;;;;;30.95;28.20;;;14.90;58.30;;;;;;4993405;28;20045;-80
2023/02/07 06:38:53;;;;;;;31.30;28.50;;;14.90;57.60;;;;;;4993216;28;20033;-78
2023/02/07 06:41:19;;;;;;;29.90;27.20;;;14.90;57.70;;;;;;4993357;28;20388;-80
2023/02/07 06:43:44;;;;;;;27.48;24.98;;;14.90;57.70;;;;;;4993311;28;20027;-80
2023/02/07 06:46:10;;;;;;;27.92;25.33;;;14.80;57.60;;;;;;4993158;28;20030;-80
2023/02/07 06:48:36;;;;;;;28.77;26.13;;;14.90;57.60;;;;;;4993090;28;20030;-79
2023/02/07 06:51:01;;;;;;;26.10;23.75;;;14.80;57.50;;;;;;4992846;28;20045;-79
2023/02/07 06:53:28;;;;;;;25.42;23.02;;;14.80;57.50;;;;;;4993002;28;20033;-81
2023/02/07 06:55:54;;;;;;;24.30;22.08;;;14.80;57.50;;;;;;4993247;28;20061;-81
2023/02/07 06:58:20;;;;;;;22.67;20.35;;;14.80;57.50;;;;;;4993065;28;20065;-77
2023/02/07 07:00:46;;;;;;;23.58;21.52;;;14.80;57.50;;;;;;4975859;28;20037;-79
2023/02/07 07:03:14;;;;;;;22.27;20.13;;;14.80;57.50;;;;;;4992756;28;20121;-80
2023/02/07 07:05:41;;;;;;;21.45;19.38;;;14.80;57.50;;;;;;4993214;28;20030;-78
2023/02/07 07:08:08;;;;;;;19.98;18.08;;;14.80;57.40;;;;;;4993196;28;20384;-78
2023/02/07 07:10:33;;;;;;;19.63;17.92;;;14.80;57.40;;;;;;4993281;28;20459;-78
2023/02/07 07:12:59;;;;;;;19.65;17.80;;;14.80;57.40;;;;;;4992682;28;20073;-77
2023/02/07 07:15:25;;;;;;;18.05;16.25;;;14.80;57.40;;;;;;4994438;28;20105;-77
2023/02/07 07:17:51;;;;;;;18.75;16.95;;;14.80;57.30;;;;;;4999279;28;20413;-80
2023/02/07 07:20:16;;;;;;;18.45;16.55;;;14.80;57.30;;;;;;4999320;28;20041;-79
2023/02/07 07:22:42;;;;;;;16.38;14.73;;;14.70;57.30;;;;;;4999450;28;20022;-79
2023/02/07 07:25:08;;;;;;;15.63;14.07;;;14.80;57.30;;;;;;4999479;28;20022;-84
2023/02/07 07:27:34;;;;;;;16.42;13.63;;;14.80;56.90;;;;;;4999682;28;20381;-83
2023/02/07 07:30:00;;;;;;;14.45;12.48;;;14.70;56.70;;;;;;4999475;28;20019;-82
2023/02/07 07:32:26;;;;;;;14.77;13.05;;;14.70;56.70;;;;;;4999121;28;20046;-74
2023/02/07 07:34:53;;;;;;;14.07;12.25;;;14.70;56.70;;;;;;4999334;28;20032;-75
2023/02/07 07:37:19;;;;;;;14.00;12.25;;;14.70;56.70;;;;;;4999380;28;20026;-76
2023/02/07 07:39:45;;;;;;;14.63;11.98;;;14.70;56.70;;;;;;4999111;28;20018;-76
2023/02/07 07:42:11;;;;;;;11.88;10.68;;;14.70;56.70;;;;;;4999279;28;20037;-75
2023/02/07 07:44:37;;;;;;;13.35;11.13;;;14.70;56.70;;;;;;4999097;28;20452;-76
2023/02/07 07:47:03;;;;;;;11.27;9.80;;;14.70;56.80;;;;;;4999354;28;20515;-76
2023/02/07 07:49:28;;;;;;;12.45;10.63;;;14.70;56.70;;;;;;4999189;28;20062;-73
2023/02/07 07:51:54;;;;;;;9.90;8.85;;;14.60;56.60;;;;;;4998906;28;20496;-76
2023/02/07 07:54:20;;;;;;;11.43;9.63;;;14.60;56.60;;;;;;4999012;28;20054;-75
2023/02/07 07:56:45;;;;;;;11.30;8.95;;;14.60;56.60;;;;;;4998923;28;20081;-75
2023/02/07 07:59:11;;;;;;;9.25;8.35;;;14.60;56.60;;;;;;4998915;28;20030;-79
2023/02/07 08:01:37;;;;;;;8.77;7.82;;;14.60;56.60;;;;;;4998683;28;20022;-76
2023/02/07 08:04:02;;;;;;;9.70;8.50;;;14.60;56.60;;;;;;4998928;28;20089;-76
2023/02/07 08:06:29;;;;;;;8.43;7.18;;;14.60;56.60;;;;;;4998842;28;20033;-76
2023/02/07 08:08:55;;;;;;;8.88;7.53;;;14.60;56.60;;;;;;4999148;28;20026;-76
2023/02/07 08:11:21;;;;;;;8.23;6.82;;;14.60;56.60;;;;;;4998853;28;20481;-76
2023/02/07 08:13:47;;;;;;;8.73;7.20;;;14.60;56.60;;;;;;4998730;28;20499;-76
2023/02/07 08:16:13;;;;;;;7.88;6.75;;;14.60;56.70;;;;;;4998839;28;20513;-76
2023/02/07 08:18:39;;;;;;;8.55;7.05;;;14.60;56.60;;;;;;4998807;28;20412;-76
2023/02/07 08:21:05;;;;;;;8.07;6.53;;;14.60;56.60;;;;;;4998723;28;20026;-76
2023/02/07 08:23:30;;;;;;;8.30;6.68;;;14.50;56.70;;;;;;4998746;28;20077;-75
2023/02/07 08:25:56;;;;;;;6.78;5.97;;;14.50;56.70;;;;;;4999083;28;20147;-76
2023/02/07 08:28:22;;;;;;;9.07;6.65;;;14.60;56.60;;;;;;4977740;28;20041;-76
2023/02/07 08:30:48;;;;;;;6.55;5.30;;;14.50;56.70;;;;;;4995545;28;20026;-74
2023/02/07 08:33:14;;;;;;;7.18;5.88;;;14.50;56.70;;;;;;4995508;28;20046;-76
2023/02/07 08:35:40;;;;;;;6.38;5.32;;;14.50;56.70;;;;;;4995605;28;20070;-77
2023/02/07 08:38:07;;;;;;;7.35;5.82;;;14.50;56.70;;;;;;4995720;28;20027;-76
2023/02/07 08:40:33;;;;;;;6.90;5.53;;;14.50;56.70;;;;;;4995436;28;20034;-76
2023/02/07 08:42:59;;;;;;;7.63;5.55;;;14.60;56.70;;;;;;4995723;28;20381;-76
2023/02/07 08:45:25;;;;;;;7.78;5.57;;;14.50;56.70;;;;;;4995663;28;20023;-76
2023/02/07 08:47:51;;;;;;;6.28;5.10;;;14.50;56.70;;;;;;4995517;28;20066;-77
2023/02/07 08:50:17;;;;;;;6.10;4.88;;;14.50;56.70;;;;;;4995283;28;20518;-76
2023/02/07 08:52:44;;;;;;;6.28;4.50;;;14.50;56.70;;;;;;4995052;28;20049;-76
2023/02/07 08:55:10;;;;;;;5.43;4.60;;;14.50;57.40;;;;;;4995158;28;20027;-75
2023/02/07 08:57:36;;;;;;;6.72;5.25;;;14.50;56.70;;;;;;4995170;28;20027;-75
2023/02/07 09:00:05;;;;;;;4.90;4.30;;;14.50;56.70;;;;;;4995438;28;20058;-75
2023/02/07 09:02:30;;;;;;;6.18;4.20;;;14.50;56.70;;;;;;4994878;28;20050;-75
2023/02/07 09:04:56;;;;;;;6.13;5.05;;;14.50;56.70;;;;;;4995242;28;20068;-74
2023/02/07 09:07:22;;;;;;;6.03;4.68;;;14.50;56.70;;;;;;4994989;28;20404;-75
2023/02/07 09:09:47;;;;;;;7.32;5.22;;;14.50;56.60;;;;;;4994773;28;20036;-75
2023/02/07 09:12:13;;;;;;;4.70;4.20;;;14.50;56.60;;;;;;4994790;28;20038;-74
2023/02/07 09:14:39;;;;;;;6.25;4.57;;;14.50;56.60;;;;;;4994709;28;20045;-75
2023/02/07 09:17:06;;;;;;;5.32;4.43;;;14.50;56.60;;;;;;4994558;28;20400;-74
2023/02/07 09:19:32;;;;;;;7.05;4.45;;;14.50;56.60;;;;;;4994660;28;20038;-74
2023/02/07 09:21:57;;;;;;;5.40;4.18;;;14.50;56.90;;;;;;4994665;28;20134;-74
2023/02/07 09:24:23;;;;;;;6.93;4.50;;;14.40;57.00;;;;;;4994639;28;20135;-74
2023/02/07 09:26:49;;;;;;;6.15;4.18;;;14.40;57.10;;;;;;4994593;28;20586;-74
2023/02/07 09:29:15;;;;;;;6.32;4.50;;;14.50;57.10;;;;;;4994488;28;20512;-75
2023/02/07 09:31:41;;;;;;;7.22;4.40;;;14.50;57.20;;;;;;4994404;28;20462;-75
2023/02/07 09:34:06;;;;;;;4.57;3.72;;;14.40;57.20;;;;;;4994672;28;20019;-74
2023/02/07 09:36:32;;;;;;;5.80;4.15;;;14.40;57.80;;;;;;4994413;28;20503;-74
2023/02/07 09:38:59;;;;;;;5.20;4.35;;;14.50;57.20;;;;;;4994592;28;20073;-75
2023/02/07 09:41:43;;;;;;;5.15;3.85;;;14.50;57.30;;;;;;4994219;28;20110;-74
2023/02/07 09:44:47;;;;;;;5.35;4.20;;;14.40;57.20;;;;;;4994216;28;20058;-74
2023/02/07 09:47:20;;;;;;;4.25;3.72;;;14.40;57.10;;;;;;4980462;28;20101;-74
2023/02/07 09:49:59;;;;;;;5.07;3.83;;;14.40;57.20;;;;;;4994212;28;20026;-74
2023/02/07 09:52:37;;;;;;;4.47;3.72;;;14.40;57.10;;;;;;4993982;28;20041;-74
2023/02/07 09:55:04;;;;;;;5.05;3.85;;;14.40;57.10;;;;;;4994054;28;20109;-74
2023/02/07 09:57:36;;;;;;;5.38;3.97;;;14.50;57.20;;;;;;4994269;28;20037;-74
2023/02/07 10:00:25;;;;;;;5.25;3.90;;;14.50;57.10;;;;;;4994009;28;20046;-74
2023/02/07 10:03:22;;;;;;;4.75;3.60;;;14.50;57.20;;;;;;4993833;28;20076;-74
2023/02/07 10:06:00;;;;;;;5.70;3.67;;;14.50;57.10;;;;;;4978170;28;20046;-74
2023/02/07 10:08:26;;;;;;;4.65;3.50;;;14.50;57.60;;;;;;4993665;28;20034;-74
2023/02/07 10:11:01;;;;;;;5.32;3.97;;;14.50;56.90;;;;;;4976854;28;20025;-74
2023/02/07 10:13:39;;;;;;;7.47;4.47;;;14.50;56.80;;;;;;4993913;28;20412;-74
2023/02/07 10:16:42;;;;;;;7.28;5.07;;;14.60;56.60;;;;;;4994004;28;20034;-75
2023/02/07 10:19:34;;;;;;;7.72;5.10;;;14.60;56.50;;;;;;4993915;28;20037;-76
2023/02/07 10:22:09;;;;;;;9.60;4.35;;;14.60;56.30;;;;;;4993776;28;20428;-76
2023/02/07 10:25:08;;;;;;;6.72;5.05;;;14.60;56.30;;;;;;4993749;28;20030;-75
2023/02/07 10:27:57;;;;;;;7.53;5.15;;;14.60;56.20;;;;;;4993754;28;20034;-76
2023/02/07 10:30:29;;;;;;;7.25;4.95;;;14.70;56.30;;;;;;4993336;28;20028;-75
2023/02/07 10:33:01;;;;;;;6.50;4.43;;;14.60;56.30;;;;;;4993322;28;20441;-75
2023/02/07 10:35:33;;;;;;;8.05;4.80;;;14.60;56.40;;;;;;4993466;28;20110;-75
2023/02/07 10:38:01;;;;;;;8.90;4.47;;;14.60;56.40;;;;;;4993541;28;20092;-75
2023/02/07 10:40:40;;;;;;;7.18;4.50;;;14.60;56.40;;;;;;4993088;28;20053;-74
2023/02/07 10:43:18;;;;;;;5.33;4.13;;;14.60;56.50;;;;;;4993268;28;20437;-74
2023/02/07 10:45:44;;;;;;;7.32;4.75;;;14.70;57.00;;;;;;4993122;28;20508;-74
2023/02/07 10:48:18;;;;;;;6.75;4.93;;;14.70;56.90;;;;;;4993075;28;20026;-75
2023/02/07 10:50:44;;;;;;;6.55;4.47;;;14.70;56.30;;;;;;4992648;28;20053;-74
2023/02/07 10:53:09;;;;;;;5.15;4.22;;;14.80;56.30;;;;;;4993145;28;20548;-74
2023/02/07 10:55:46;;;;;;;5.25;4.55;;;14.80;56.20;;;;;;4993002;28;20366;-74
2023/02/07 10:58:16;;;;;;;6.97;4.90;;;14.80;56.20;;;;;;4993000;28;20472;-75
2023/02/07 11:00:47;;;;;;;5.90;4.55;;;14.90;56.20;;;;;;4993245;28;20015;-75
2023/02/07 11:03:19;;;;;;;6.80;4.78;;;14.90;56.40;;;;;;4992798;28;20046;-74
2023/02/07 11:05:56;;;;;;;6.40;4.40;;;15.00;56.30;;;;;;4993176;28;20030;-74
2023/02/07 11:08:28;;;;;;;7.03;4.88;;;15.00;56.20;;;;;;4993448;28;20035;-75
2023/02/07 11:10:57;;;;;;;5.65;4.55;;;15.10;56.10;;;;;;4992948;28;20038;-74
2023/02/07 11:13:28;;;;;;;6.15;4.18;;;15.20;56.00;;;;;;4992831;28;20050;-75
2023/02/07 11:15:56;;;;;;;5.60;4.22;;;15.20;56.00;;;;;;4992767;28;20081;-74
2023/02/07 11:18:40;;;;;;;7.30;4.55;;;15.20;56.00;;;;;;4992828;28;20058;-75
2023/02/07 11:21:40;;;;;;;5.55;4.30;;;15.30;55.80;;;;;;4992840;28;20050;-75
2023/02/07 11:24:18;;;;;;;4.70;4.05;;;15.40;55.90;;;;;;4992803;28;20032;-74
2023/02/07 11:27:06;;;;;;;6.70;4.50;;;15.50;55.70;;;;;;4992726;28;20037;-75
2023/02/07 11:30:02;;;;;;;5.25;4.20;;;15.50;55.60;;;;;;4992777;28;20029;-75
2023/02/07 11:32:28;;;;;;;4.55;3.78;;;15.60;55.70;;;;;;4990894;28;20089;-75
2023/02/07 11:34:57;;;;;;;5.65;4.28;;;15.60;55.60;;;;;;4992602;28;20038;-75
2023/02/07 11:37:23;;;;;;;5.13;4.10;;;15.70;55.50;;;;;;4992873;28;20457;-75
2023/02/07 11:39:50;;;;;;;6.95;4.40;;;15.70;55.60;;;;;;4992606;28;20073;-76
2023/02/07 11:42:24;;;;;;;5.55;4.53;;;15.80;55.40;;;;;;4992588;28;20026;-75
2023/02/07 11:44:51;;;;;;;6.68;4.28;;;15.90;55.30;;;;;;4992577;28;20480;-76
2023/02/07 11:47:27;;;;;;;5.28;4.22;;;16.00;55.00;;;;;;4992789;28;20029;-75
2023/02/07 11:49:59;;;;;;;5.40;4.05;;;16.00;55.00;;;;;;4992879;28;20023;-75
2023/02/07 11:52:25;;;;;;;5.65;4.47;;;16.10;54.90;;;;;;4992384;28;20105;-75
2023/02/07 11:54:58;;;;;;;7.18;4.72;;;16.10;54.70;;;;;;4992401;28;20077;-75
2023/02/07 11:57:29;;;;;;;6.95;4.90;;;16.20;55.00;;;;;;4992420;28;20460;-75
2023/02/07 12:00:01;;;;;;;5.63;4.03;;;16.30;54.70;;;;;;4992378;28;20069;-75
2023/02/07 12:02:29;;;;;;;5.03;3.90;;;16.30;54.80;;;;;;4992823;28;20083;-75
2023/02/07 12:05:06;;;;;;;4.57;3.72;;;16.30;55.50;;;;;;4996162;28;20065;-75
2023/02/07 12:07:39;;;;;;;4.95;3.92;;;16.40;55.00;;;;;;4996138;28;20027;-76
2023/02/07 12:10:13;;;;;;;4.18;3.75;;;16.40;55.10;;;;;;4996075;28;20065;-76
2023/02/07 12:12:48;;;;;;;5.43;3.85;;;16.40;54.90;;;;;;4995921;28;20503;-75
2023/02/07 12:15:21;;;;;;;4.53;3.60;;;16.50;55.20;;;;;;4995976;28;20026;-76
2023/02/07 12:18:10;;;;;;;5.57;3.70;;;16.50;55.60;;;;;;4995876;28;20038;-75
2023/02/07 12:21:08;;;;;;;5.82;3.70;;;16.60;54.80;;;;;;4995950;28;20101;-76
2023/02/07 12:23:44;;;;;;;6.53;4.50;;;16.70;54.90;;;;;;4995855;28;20065;-75
2023/02/07 12:26:25;;;;;;;4.28;3.65;;;16.70;54.50;;;;;;4996006;28;20015;-76
2023/02/07 12:29:07;;;;;;;5.45;3.70;;;16.70;55.00;;;;;;4995661;28;20432;-75
2023/02/07 12:31:51;;;;;;;3.78;3.38;;;16.80;54.10;;;;;;4995555;28;20043;-76
2023/02/07 12:34:27;;;;;;;5.65;3.55;;;17.50;54.50;;;;;;4995797;28;20034;-75
2023/02/07 12:37:04;;;;;;;4.00;3.60;;;16.90;53.60;;;;;;4995548;28;20041;-76
2023/02/07 12:39:41;;;;;;;4.68;3.33;;;17.00;53.80;;;;;;4995470;28;20045;-76
2023/02/07 12:42:31;;;;;;;3.95;3.55;;;16.60;53.50;;;;;;4995441;28;20161;-75
2023/02/07 12:45:00;;;;;;;4.10;3.35;;;17.10;53.70;;;;;;4995473;28;20109;-75
2023/02/07 12:47:57;;;;;;;5.43;3.22;;;17.20;53.20;;;;;;4995261;28;20069;-75
2023/02/07 12:50:38;;;;;;;5.00;3.45;;;17.20;54.10;;;;;;4995290;28;20481;-75
2023/02/07 12:53:04;;;;;;;;;;;17.20;53.30;;;;;;4995574;28;20405;-75
2023/02/07 12:56:01;;;;;;;5.55;3.80;;;17.30;53.40;;;;;;4995241;28;20376;-75
2023/02/07 12:58:38;;;;;;;3.88;3.05;;;17.40;53.60;;;;;;4995159;28;20041;-75